Time;durP1;ratioP1;P1;durP2;ratioP2;P2;SDS_P1;SDS_P2;PMS_P1;PMS_P2;Temp;Humidity;BMP_temperature;BMP_pressure;BME280_temperature;BME280_humidity;BME280_pressure;Samples;Min_cycle;Max_cycle;Signal;HPM_P1;HPM_P2
2022/02/05 00:01:22;;;;;;;2.78;1.33;;;3.20;99.90;;;;;;6244730;23;20032;-89
2022/02/05 00:04:14;;;;;;;5.38;1.50;;;3.00;99.90;;;;;;6223127;23;20024;-88
2022/02/05 00:07:04;;;;;;;3.53;1.70;;;2.90;99.90;;;;;;6246195;23;20055;-87
2022/02/05 00:43:46;;;;;;;4.30;1.70;;;1.50;99.90;;;;;;6203997;23;20524;-88
2022/02/05 00:46:38;;;;;;;4.43;1.70;;;1.30;99.90;;;;;;6225573;23;20075;-88
2022/02/05 00:49:25;;;;;;;4.35;2.30;;;1.30;99.90;;;;;;6245168;23;20495;-88
2022/02/05 00:52:15;;;;;;;4.10;2.00;;;1.20;99.90;;;;;;6248088;23;20453;-89
2022/02/05 00:55:08;;;;;;;2.33;1.88;;;1.10;99.90;;;;;;6247944;23;20028;-87
2022/02/05 00:58:02;;;;;;;11.77;2.22;;;1.00;99.90;;;;;;6249674;23;20024;-88
2022/02/05 01:00:52;;;;;;;3.95;2.05;;;0.90;99.90;;;;;;6249552;23;20107;-87
2022/02/05 01:03:39;;;;;;;3.90;1.98;;;0.80;99.90;;;;;;6224553;23;20031;-88
2022/02/05 01:06:27;;;;;;;3.58;1.70;;;0.60;99.90;;;;;;6222244;23;20380;-87
2022/02/05 01:09:24;;;;;;;4.05;1.92;;;0.50;99.90;;;;;;6246272;23;20056;-87
2022/02/05 01:12:12;;;;;;;2.90;2.20;;;0.40;99.90;;;;;;6246348;23;20024;-87
2022/02/05 01:15:06;;;;;;;4.05;2.20;;;0.40;99.90;;;;;;6247948;22;20165;-87
2022/02/05 01:18:00;;;;;;;5.40;2.70;;;0.50;99.90;;;;;;6244788;23;20021;-87
2022/02/05 01:21:33;;;;;;;5.13;2.60;;;0.60;99.90;;;;;;6226946;23;20031;-86
2022/02/05 01:24:06;;;;;;;5.85;2.38;;;0.70;99.90;;;;;;6242068;23;20133;-87
2022/02/05 01:27:04;;;;;;;;;;;0.60;99.90;;;;;;6236574;23;20028;-87
2022/02/05 01:30:13;;;;;;;4.25;2.40;;;0.50;99.90;;;;;;6234942;23;19978;-87
2022/02/05 01:36:41;;;;;;;8.55;3.38;;;0.50;99.90;;;;;;6226150;23;20028;-87
2022/02/05 01:54:49;;;;;;;4.90;2.47;;;0.30;99.90;;;;;;6231762;23;20105;-87
2022/02/05 02:09:34;;;;;;;6.38;2.00;;;0.40;99.90;;;;;;6231897;23;20078;-87
2022/02/05 02:20:52;;;;;;;7.97;3.22;;;0.30;99.90;;;;;;6239014;23;20013;-86
2022/02/05 02:23:23;;;;;;;8.23;3.88;;;0.30;99.90;;;;;;6239835;22;20067;-86
2022/02/05 02:26:25;;;;;;;9.02;2.75;;;0.30;99.90;;;;;;6240703;23;20012;-86
2022/02/05 02:29:22;;;;;;;13.70;2.75;;;0.30;99.90;;;;;;6240857;22;20043;-87
2022/02/05 02:32:10;;;;;;;5.57;2.90;;;0.30;99.90;;;;;;6237763;23;20035;-88
2022/02/05 02:35:04;;;;;;;5.03;2.85;;;0.30;99.90;;;;;;6234898;22;20089;-88
2022/02/05 02:38:00;;;;;;;9.07;3.10;;;0.30;99.90;;;;;;6239806;22;20074;-86
2022/02/05 02:41:10;;;;;;;10.90;3.10;;;0.30;99.90;;;;;;6239056;23;20024;-87
2022/02/05 02:43:58;;;;;;;6.50;3.67;;;0.30;99.90;;;;;;6234724;22;20040;-87
2022/02/05 02:46:45;;;;;;;5.50;3.03;;;0.30;99.90;;;;;;6233528;23;20032;-88
2022/02/05 02:49:56;;;;;;;7.43;3.17;;;0.30;99.90;;;;;;6227384;23;20024;-88
2022/02/05 02:59:08;;;;;;;7.15;3.15;;;0.40;99.90;;;;;;6228888;23;20051;-87
2022/02/05 03:02:10;;;;;;;8.32;3.65;;;0.40;99.90;;;;;;6229008;23;20028;-87
2022/02/05 03:04:57;;;;;;;8.45;4.50;;;0.40;99.90;;;;;;6208911;23;20025;-87
2022/02/05 03:07:50;;;;;;;10.85;3.70;;;0.30;99.90;;;;;;6226976;23;20029;-88
2022/02/05 03:10:39;;;;;;;10.60;3.38;;;0.40;99.90;;;;;;6226273;23;20059;-87
2022/02/05 03:13:31;;;;;;;7.28;3.40;;;0.40;99.90;;;;;;6223236;23;20099;-88
2022/02/05 03:16:23;;;;;;;15.43;3.53;;;0.30;99.90;;;;;;6213873;23;20024;-88
2022/02/05 03:19:14;;;;;;;9.02;3.25;;;0.30;99.90;;;;;;6214296;23;20052;-87
2022/02/05 03:22:02;;;;;;;5.97;3.28;;;0.30;99.90;;;;;;6214912;23;20075;-87
2022/02/05 03:24:53;;;;;;;4.82;3.10;;;0.20;99.90;;;;;;6213766;23;20024;-88
2022/02/05 03:27:40;;;;;;;8.02;4.13;;;0.20;99.90;;;;;;6215643;23;20125;-87
2022/02/05 03:30:29;;;;;;;8.68;3.60;;;0.20;99.90;;;;;;6216674;23;20126;-87
2022/02/05 03:33:16;;;;;;;8.68;3.22;;;0.10;99.90;;;;;;6241050;23;20226;-88
2022/02/05 03:36:03;;;;;;;6.80;3.40;;;0.10;99.90;;;;;;6245825;23;20029;-89
2022/02/05 03:38:51;;;;;;;6.82;3.55;;;0.20;99.90;;;;;;6242679;23;20028;-88
2022/02/05 03:41:42;;;;;;;9.05;3.70;;;0.20;99.90;;;;;;6222994;23;20055;-88
2022/02/05 03:44:29;;;;;;;9.82;3.50;;;0.20;99.90;;;;;;6245509;23;20038;-89
2022/02/05 03:47:18;;;;;;;9.10;4.03;;;0.10;99.90;;;;;;6246547;23;20090;-87
2022/02/05 03:50:07;;;;;;;7.72;3.60;;;0.10;99.90;;;;;;6248775;22;20046;-87
2022/02/05 03:52:54;;;;;;;11.63;4.88;;;0.20;99.90;;;;;;6224644;23;20092;-88
2022/02/05 03:55:45;;;;;;;12.88;4.00;;;0.10;99.90;;;;;;6223107;23;20028;-88
2022/02/05 03:58:32;;;;;;;14.50;4.57;;;0.10;99.90;;;;;;6245820;23;20027;-88
2022/02/05 04:01:19;;;;;;;13.88;4.70;;;0.20;99.90;;;;;;6246597;23;20095;-88
2022/02/05 04:04:07;;;;;;;9.05;4.22;;;0.20;99.90;;;;;;6245335;23;20065;-87
2022/02/05 04:06:54;;;;;;;12.98;4.15;;;0.20;99.90;;;;;;6247200;23;20431;-88
2022/02/05 04:09:42;;;;;;;11.40;5.88;;;0.10;99.90;;;;;;6246075;23;20314;-88
2022/02/05 04:18:42;;;;;;;12.32;5.40;;;0.20;99.90;;;;;;6245519;23;20046;-89
2022/02/05 04:21:32;;;;;;;9.63;4.65;;;0.40;99.90;;;;;;6244893;23;20098;-87
2022/02/05 04:24:19;;;;;;;11.13;4.55;;;0.50;99.90;;;;;;6246005;23;20103;-88
2022/02/05 04:27:07;;;;;;;9.35;4.50;;;0.60;99.90;;;;;;6221610;23;20051;-89
2022/02/05 04:29:54;;;;;;;12.07;5.03;;;0.60;99.90;;;;;;6224185;23;20059;-88
2022/02/05 04:32:41;;;;;;;11.98;4.57;;;0.70;99.90;;;;;;6215217;23;20099;-88
2022/02/05 04:35:29;;;;;;;8.60;4.10;;;0.70;99.90;;;;;;6214075;23;20127;-87
2022/02/05 04:38:20;;;;;;;7.85;4.57;;;0.80;99.90;;;;;;6218158;23;20116;-88
2022/02/05 04:41:15;;;;;;;10.73;4.10;;;0.80;99.90;;;;;;6236074;23;20424;-89
2022/02/05 08:43:38;;;;;;;6.70;2.60;;;2.90;99.90;;;;;;6182777;23;20032;-89
2022/02/05 08:52:02;;;;;;;;;;;;;;;;;;;;;
2022/02/05 08:55:48;;;;;;;;;;;;;;;;;;;;;
2022/02/05 08:59:45;;;;;;;;;;;;;;;;;;;;;
2022/02/05 09:03:44;;;;;;;;;;;;;;;;;;;;;
2022/02/05 10:01:49;;;;;;;7.70;1.98;;;7.70;93.60;;;;;;6163031;23;20049;-89
2022/02/05 10:14:03;;;;;;;;;;;;;;;;;;;;;
2022/02/05 10:34:34;;;;;;;;;;;;;;;;;;;;;
2022/02/05 10:46:42;;;;;;;;;;;;;;;;;;;;;
2022/02/05 10:54:10;;;;;;;;;;;;;;;;;;;;;
2022/02/05 11:06:33;;;;;;;;;;;;;;;;;;;;;
2022/02/05 11:09:49;;;;;;;;;;;;;;;;;;;;;
2022/02/05 12:59:45;;;;;;;;;;;;;;;;;;;;;
2022/02/05 13:07:10;;;;;;;;;;;;;;;;;;;;;
2022/02/05 13:19:49;;;;;;;;;;;;;;;;;;;;;
2022/02/05 13:42:49;;;;;;;3.35;1.20;;;13.50;51.40;;;;;;6118878;23;20026;-91
2022/02/05 14:17:13;;;;;;;;;;;;;;;;;;;;;
2022/02/05 14:20:50;;;;;;;;;;;;;;;;;;;;;
2022/02/05 14:24:25;;;;;;;5.82;1.77;;;6.70;71.20;;;;;;6153643;23;20091;-87
2022/02/05 14:33:33;;;;;;;;;;;;;;;;;;;;;
2022/02/05 15:15:08;;;;;;;;;;;;;;;;;;;;;
2022/02/05 15:18:47;;;;;;;7.53;1.80;;;9.90;59.60;;;;;;5992590;23;20445;-92
2022/02/05 15:26:31;;;;;;;4.53;1.40;;;9.30;61.40;;;;;;5972588;24;20051;-91
2022/02/05 15:49:31;;;;;;;4.53;2.17;;;7.10;69.20;;;;;;6011123;22;6301619;-89
2022/02/05 16:17:16;;;;;;;7.55;2.20;;;5.00;84.20;;;;;;5891789;24;20081;-90
2022/02/05 16:21:02;;;;;;;6.97;1.85;;;4.70;86.90;;;;;;5896522;24;20013;-91
2022/02/05 16:33:12;;;;;;;;;;;;;;;;;;;;;
2022/02/05 16:56:51;;;;;;;9.95;3.60;;;3.30;99.90;;;;;;5996862;23;20008;-88
2022/02/05 17:32:43;;;;;;;;;;;;;;;;;;;;;
2022/02/05 17:36:49;;;;;;;;;;;;;;;;;;;;;
2022/02/05 17:40:02;;;;;;;17.90;5.32;;;2.40;99.90;;;;;;6155261;23;20053;-91
2022/02/05 17:47:04;;;;;;;22.15;5.70;;;2.40;99.90;;;;;;5955066;24;20077;-91
2022/02/05 17:51:21;;;;;;;;;;;;;;;;;;;;;
2022/02/05 17:58:25;;;;;;;;;;;;;;;;;;;;;
2022/02/05 18:05:39;;;;;;;13.68;6.32;;;2.10;99.90;;;;;;6165293;23;20021;-90
2022/02/05 18:09:11;;;;;;;9.68;4.75;;;2.00;99.90;;;;;;6251685;23;20023;-89
2022/02/05 18:12:54;;;;;;;14.27;4.85;;;2.10;99.90;;;;;;6195486;23;20026;-90
2022/02/05 18:16:32;;;;;;;;;;;;;;;;;;;;;
2022/02/05 18:20:15;;;;;;;;;;;;;;;;;;;;;
2022/02/05 18:35:33;;;;;;;;;;;;;;;;;;;;;
2022/02/05 18:39:25;;;;;;;12.02;4.53;;;2.20;99.90;;;;;;5871823;24;20034;-91
2022/02/05 18:42:28;;;;;;;8.10;4.75;;;2.20;99.90;;;;;;5859299;24;20041;-90
2022/02/05 18:46:05;;;;;;;18.45;4.55;;;2.30;99.90;;;;;;5927292;24;20340;-90
2022/02/05 18:54:07;;;;;;;;;;;;;;;;;;;;;
2022/02/05 21:34:31;;;;;;;11.88;4.22;;;1.30;99.90;;;;;;6046804;23;20041;-90
